Albany, New York
Traffic Map
Current Weather Conditions
Albany, New York
Overcast
Overcast
52°
Feels Like: 52°
Wind Chill: 52° Ceiling: 14000
Heat Index: 52° Visibility: 10mi
Dew Point: 36° Wind: 5mph
Humidity: 54% Direction: 170° (S)
Pressure: 29.94in Gusts: 0mph
Raw Report DataKALB 202351Z 17004KT 10SM FEW080 SCT110 OVC140 11/02 A2994 RMK AO2 SLP139 T01110022 10133 20111 58001
Traffic Incident Summary
Active as of:
Severity:
Category:
InformationThere was an issue retrieving the traffic information for this location. Please try a different location or try again shortly.
Advertisements
Track Severe Weather on mobile